sensor_id;sensor_type;location;lat;lon;timestamp;pressure;altitude;pressure_sealevel;temperature;humidity
31092;BME280;67728;53.122;12.776;2023-07-02T00:00:51;99459.09;;;16.24;100.00
31092;BME280;67728;53.122;12.776;2023-07-02T00:02:25;99464.69;;;16.17;100.00
31092;BME280;67728;53.122;12.776;2023-07-02T00:03:57;99461.16;;;16.19;99.55
31092;BME280;67728;53.122;12.776;2023-07-02T00:05:29;99456.09;;;16.15;99.65
31092;BME280;67728;53.122;12.776;2023-07-02T00:07:00;99462.34;;;16.13;100.00
31092;BME280;67728;53.122;12.776;2023-07-02T00:08:34;99466.00;;;16.10;100.00
31092;BME280;67728;53.122;12.776;2023-07-02T00:10:08;99462.78;;;16.05;100.00
31092;BME280;67728;53.122;12.776;2023-07-02T00:11:43;99461.28;;;16.01;100.00
31092;BME280;67728;53.122;12.776;2023-07-02T00:13:16;99464.81;;;16.00;98.99
31092;BME280;67728;53.122;12.776;2023-07-02T00:14:47;99464.34;;;15.94;98.45
31092;BME280;67728;53.122;12.776;2023-07-02T00:16:19;99462.34;;;15.83;98.24
31092;BME280;67728;53.122;12.776;2023-07-02T00:17:49;99461.47;;;15.83;98.48
31092;BME280;67728;53.122;12.776;2023-07-02T00:19:21;99467.47;;;15.85;97.96
31092;BME280;67728;53.122;12.776;2023-07-02T00:20:52;99472.97;;;15.80;98.82
31092;BME280;67728;53.122;12.776;2023-07-02T00:22:23;99463.97;;;15.70;99.24
31092;BME280;67728;53.122;12.776;2023-07-02T00:23:55;99465.72;;;15.70;99.58
31092;BME280;67728;53.122;12.776;2023-07-02T00:25:28;99470.00;;;15.71;98.95
31092;BME280;67728;53.122;12.776;2023-07-02T00:27:00;99460.56;;;15.68;99.09
31092;BME280;67728;53.122;12.776;2023-07-02T00:28:31;99470.28;;;15.66;98.77
31092;BME280;67728;53.122;12.776;2023-07-02T00:30:02;99464.28;;;15.64;99.02
31092;BME280;67728;53.122;12.776;2023-07-02T00:31:34;99468.84;;;15.61;99.52
31092;BME280;67728;53.122;12.776;2023-07-02T00:33:06;99469.84;;;15.58;98.41
31092;BME280;67728;53.122;12.776;2023-07-02T00:34:36;99472.63;;;15.55;99.65
31092;BME280;67728;53.122;12.776;2023-07-02T00:36:08;99476.94;;;15.56;99.25
31092;BME280;67728;53.122;12.776;2023-07-02T00:37:43;99471.88;;;15.53;99.63
31092;BME280;67728;53.122;12.776;2023-07-02T00:39:15;99475.41;;;15.52;99.48
31092;BME280;67728;53.122;12.776;2023-07-02T00:40:49;99478.03;;;15.52;99.12
31092;BME280;67728;53.122;12.776;2023-07-02T00:42:21;99476.44;;;15.49;99.46
31092;BME280;67728;53.122;12.776;2023-07-02T00:43:53;99482.00;;;15.43;99.77
31092;BME280;67728;53.122;12.776;2023-07-02T00:45:25;99475.91;;;15.43;99.43
31092;BME280;67728;53.122;12.776;2023-07-02T00:46:57;99481.22;;;15.41;99.89
31092;BME280;67728;53.122;12.776;2023-07-02T00:48:29;99471.78;;;15.39;99.94
31092;BME280;67728;53.122;12.776;2023-07-02T00:50:02;99485.00;;;15.36;99.51
31092;BME280;67728;53.122;12.776;2023-07-02T00:51:33;99478.94;;;15.35;99.97
31092;BME280;67728;53.122;12.776;2023-07-02T00:53:04;99477.25;;;15.34;99.33
31092;BME280;67728;53.122;12.776;2023-07-02T00:54:36;99487.97;;;15.30;99.95
31092;BME280;67728;53.122;12.776;2023-07-02T00:56:08;99487.19;;;15.28;99.46
31092;BME280;67728;53.122;12.776;2023-07-02T00:57:40;99500.34;;;15.26;99.76
31092;BME280;67728;53.122;12.776;2023-07-02T00:59:11;99489.19;;;15.23;99.74
31092;BME280;67728;53.122;12.776;2023-07-02T01:00:43;99496.28;;;15.21;100.00
31092;BME280;67728;53.122;12.776;2023-07-02T01:02:13;99493.78;;;15.19;99.86
31092;BME280;67728;53.122;12.776;2023-07-02T01:03:52;99492.06;;;15.18;100.00
31092;BME280;67728;53.122;12.776;2023-07-02T01:05:24;99491.22;;;15.18;99.94
31092;BME280;67728;53.122;12.776;2023-07-02T01:06:56;99486.00;;;15.18;99.50
31092;BME280;67728;53.122;12.776;2023-07-02T01:08:28;99493.25;;;15.13;100.00
31092;BME280;67728;53.122;12.776;2023-07-02T01:09:59;99488.03;;;15.13;100.00
31092;BME280;67728;53.122;12.776;2023-07-02T01:11:35;99490.69;;;15.11;100.00
31092;BME280;67728;53.122;12.776;2023-07-02T01:13:09;99488.34;;;15.07;99.85
31092;BME280;67728;53.122;12.776;2023-07-02T01:14:45;99490.94;;;15.07;100.00
31092;BME280;67728;53.122;12.776;2023-07-02T01:16:18;99490.25;;;15.03;100.00
31092;BME280;67728;53.122;12.776;2023-07-02T01:17:49;99485.13;;;15.02;100.00
31092;BME280;67728;53.122;12.776;2023-07-02T01:20:58;99492.13;;;15.01;100.00
31092;BME280;67728;53.122;12.776;2023-07-02T01:22:32;99488.75;;;14.99;100.00
31092;BME280;67728;53.122;12.776;2023-07-02T01:24:05;99490.44;;;15.00;100.00
31092;BME280;67728;53.122;12.776;2023-07-02T01:25:36;99494.81;;;15.00;100.00
31092;BME280;67728;53.122;12.776;2023-07-02T01:27:08;99490.66;;;14.95;100.00
31092;BME280;67728;53.122;12.776;2023-07-02T01:28:41;99481.84;;;14.98;100.00
31092;BME280;67728;53.122;12.776;2023-07-02T01:30:13;99482.63;;;15.00;100.00
31092;BME280;67728;53.122;12.776;2023-07-02T01:31:45;99484.38;;;15.00;100.00
31092;BME280;67728;53.122;12.776;2023-07-02T01:33:17;99474.84;;;14.98;100.00
31092;BME280;67728;53.122;12.776;2023-07-02T01:34:47;99475.84;;;14.96;100.00
31092;BME280;67728;53.122;12.776;2023-07-02T01:36:21;99476.00;;;14.93;100.00
31092;BME280;67728;53.122;12.776;2023-07-02T01:37:52;99481.38;;;14.90;100.00
31092;BME280;67728;53.122;12.776;2023-07-02T01:39:24;99475.34;;;14.89;100.00
31092;BME280;67728;53.122;12.776;2023-07-02T01:40:56;99480.47;;;14.91;100.00
31092;BME280;67728;53.122;12.776;2023-07-02T01:42:27;99472.81;;;14.88;100.00
31092;BME280;67728;53.122;12.776;2023-07-02T01:43:58;99475.41;;;14.88;100.00
31092;BME280;67728;53.122;12.776;2023-07-02T01:45:30;99476.25;;;14.88;100.00
31092;BME280;67728;53.122;12.776;2023-07-02T01:47:02;99473.66;;;14.88;100.00
31092;BME280;67728;53.122;12.776;2023-07-02T01:48:33;99479.72;;;14.89;100.00
31092;BME280;67728;53.122;12.776;2023-07-02T01:50:05;99479.72;;;14.89;100.00
31092;BME280;67728;53.122;12.776;2023-07-02T01:51:37;99482.34;;;14.89;100.00
31092;BME280;67728;53.122;12.776;2023-07-02T01:53:09;99480.56;;;14.89;100.00
31092;BME280;67728;53.122;12.776;2023-07-02T01:54:41;99479.72;;;14.89;100.00
31092;BME280;67728;53.122;12.776;2023-07-02T01:56:11;99476.31;;;14.87;100.00
31092;BME280;67728;53.122;12.776;2023-07-02T01:57:43;99481.75;;;14.84;100.00
31092;BME280;67728;53.122;12.776;2023-07-02T01:59:15;99479.19;;;14.82;100.00
31092;BME280;67728;53.122;12.776;2023-07-02T02:00:47;99481.03;;;14.80;100.00
31092;BME280;67728;53.122;12.776;2023-07-02T02:02:18;99484.25;;;14.85;100.00
31092;BME280;67728;53.122;12.776;2023-07-02T02:03:50;99478.34;;;14.82;100.00
31092;BME280;67728;53.122;12.776;2023-07-02T02:05:21;99474.72;;;14.84;100.00
31092;BME280;67728;53.122;12.776;2023-07-02T02:06:53;99474.66;;;14.86;100.00
31092;BME280;67728;53.122;12.776;2023-07-02T02:08:25;99478.19;;;14.85;100.00
31092;BME280;67728;53.122;12.776;2023-07-02T02:09:55;99475.72;;;14.82;100.00
31092;BME280;67728;53.122;12.776;2023-07-02T02:11:27;99480.03;;;14.83;100.00
31092;BME280;67728;53.122;12.776;2023-07-02T02:12:58;99481.91;;;14.81;100.00
31092;BME280;67728;53.122;12.776;2023-07-02T02:14:29;99485.56;;;14.77;100.00
31092;BME280;67728;53.122;12.776;2023-07-02T02:16:00;99490.53;;;14.81;100.00
31092;BME280;67728;53.122;12.776;2023-07-02T02:17:31;99494.84;;;14.82;100.00
31092;BME280;67728;53.122;12.776;2023-07-02T02:19:04;99489.78;;;14.79;100.00
31092;BME280;67728;53.122;12.776;2023-07-02T02:20:35;99488.13;;;14.78;100.00
31092;BME280;67728;53.122;12.776;2023-07-02T02:22:08;99496.78;;;14.79;100.00
31092;BME280;67728;53.122;12.776;2023-07-02T02:23:38;99495.84;;;14.80;100.00
31092;BME280;67728;53.122;12.776;2023-07-02T02:25:10;99505.44;;;14.79;100.00
31092;BME280;67728;53.122;12.776;2023-07-02T02:26:42;99500.16;;;14.81;100.00
31092;BME280;67728;53.122;12.776;2023-07-02T02:28:12;99500.97;;;14.81;100.00
31092;BME280;67728;53.122;12.776;2023-07-02T02:29:44;99505.38;;;14.81;100.00
31092;BME280;67728;53.122;12.776;2023-07-02T02:31:16;99504.59;;;14.79;100.00
31092;BME280;67728;53.122;12.776;2023-07-02T02:32:47;99498.38;;;14.81;100.00
31092;BME280;67728;53.122;12.776;2023-07-02T02:34:19;99492.34;;;14.81;100.00
31092;BME280;67728;53.122;12.776;2023-07-02T02:35:51;99500.31;;;14.78;100.00
31092;BME280;67728;53.122;12.776;2023-07-02T02:37:23;99510.00;;;14.76;100.00
31092;BME280;67728;53.122;12.776;2023-07-02T02:38:54;99513.59;;;14.73;100.00
31092;BME280;67728;53.122;12.776;2023-07-02T02:40:26;99504.94;;;14.73;100.00
31092;BME280;67728;53.122;12.776;2023-07-02T02:41:57;99497.31;;;14.68;100.00
31092;BME280;67728;53.122;12.776;2023-07-02T02:43:28;99506.84;;;14.69;100.00
31092;BME280;67728;53.122;12.776;2023-07-02T02:45:00;99503.56;;;14.66;100.00
31092;BME280;67728;53.122;12.776;2023-07-02T02:46:31;99508.72;;;14.67;100.00
31092;BME280;67728;53.122;12.776;2023-07-02T02:48:02;99507.09;;;14.65;100.00
31092;BME280;67728;53.122;12.776;2023-07-02T02:49:37;99502.88;;;14.62;100.00
31092;BME280;67728;53.122;12.776;2023-07-02T02:51:08;99511.72;;;14.60;100.00
31092;BME280;67728;53.122;12.776;2023-07-02T02:52:41;99513.47;;;14.59;100.00
31092;BME280;67728;53.122;12.776;2023-07-02T02:54:13;99512.69;;;14.57;100.00
31092;BME280;67728;53.122;12.776;2023-07-02T02:55:43;99515.47;;;14.54;100.00
31092;BME280;67728;53.122;12.776;2023-07-02T02:57:15;99515.28;;;14.57;100.00
31092;BME280;67728;53.122;12.776;2023-07-02T02:58:45;99516.31;;;14.55;100.00
31092;BME280;67728;53.122;12.776;2023-07-02T03:00:17;99521.53;;;14.55;100.00
31092;BME280;67728;53.122;12.776;2023-07-02T03:01:49;99525.06;;;14.54;100.00
31092;BME280;67728;53.122;12.776;2023-07-02T03:03:21;99520.25;;;14.46;100.00
31092;BME280;67728;53.122;12.776;2023-07-02T03:04:54;99530.44;;;14.51;100.00
31092;BME280;67728;53.122;12.776;2023-07-02T03:06:27;99521.66;;;14.52;100.00
31092;BME280;67728;53.122;12.776;2023-07-02T03:08:00;99528.59;;;14.53;100.00
31092;BME280;67728;53.122;12.776;2023-07-02T03:09:31;99526.84;;;14.53;100.00
31092;BME280;67728;53.122;12.776;2023-07-02T03:11:03;99535.66;;;14.51;100.00
31092;BME280;67728;53.122;12.776;2023-07-02T03:12:35;99533.75;;;14.54;100.00
31092;BME280;67728;53.122;12.776;2023-07-02T03:14:06;99527.69;;;14.54;100.00
31092;BME280;67728;53.122;12.776;2023-07-02T03:15:38;99530.28;;;14.54;100.00
31092;BME280;67728;53.122;12.776;2023-07-02T03:17:09;99525.91;;;14.54;100.00
31092;BME280;67728;53.122;12.776;2023-07-02T03:18:40;99521.47;;;14.56;100.00
31092;BME280;67728;53.122;12.776;2023-07-02T03:20:12;99520.53;;;14.57;100.00
31092;BME280;67728;53.122;12.776;2023-07-02T03:21:43;99529.19;;;14.58;100.00
31092;BME280;67728;53.122;12.776;2023-07-02T03:23:16;99516.94;;;14.60;100.00
31092;BME280;67728;53.122;12.776;2023-07-02T03:24:48;99522.22;;;14.58;100.00
31092;BME280;67728;53.122;12.776;2023-07-02T03:26:19;99510.16;;;14.56;100.00
31092;BME280;67728;53.122;12.776;2023-07-02T03:27:50;99501.50;;;14.55;100.00
31092;BME280;67728;53.122;12.776;2023-07-02T03:29:22;99515.38;;;14.56;99.93
31092;BME280;67728;53.122;12.776;2023-07-02T03:30:53;99508.47;;;14.55;100.00
31092;BME280;67728;53.122;12.776;2023-07-02T03:32:24;99517.91;;;14.57;100.00
31092;BME280;67728;53.122;12.776;2023-07-02T03:33:56;99513.47;;;14.59;100.00
31092;BME280;67728;53.122;12.776;2023-07-02T03:35:27;99509.88;;;14.62;100.00
31092;BME280;67728;53.122;12.776;2023-07-02T03:36:59;99513.38;;;14.61;100.00
31092;BME280;67728;53.122;12.776;2023-07-02T03:38:32;99516.00;;;14.61;100.00
31092;BME280;67728;53.122;12.776;2023-07-02T03:40:04;99526.19;;;14.65;100.00
31092;BME280;67728;53.122;12.776;2023-07-02T03:41:35;99531.50;;;14.64;100.00
31092;BME280;67728;53.122;12.776;2023-07-02T03:43:06;99532.41;;;14.63;100.00
31092;BME280;67728;53.122;12.776;2023-07-02T03:44:38;99525.28;;;14.66;100.00
31092;BME280;67728;53.122;12.776;2023-07-02T03:46:08;99532.25;;;14.66;100.00
31092;BME280;67728;53.122;12.776;2023-07-02T03:47:40;99538.28;;;14.68;100.00
31092;BME280;67728;53.122;12.776;2023-07-02T03:49:10;99533.13;;;14.66;100.00
31092;BME280;67728;53.122;12.776;2023-07-02T03:50:42;99539.09;;;14.68;99.83
31092;BME280;67728;53.122;12.776;2023-07-02T03:52:12;99532.34;;;14.64;100.00
31092;BME280;67728;53.122;12.776;2023-07-02T03:53:45;99530.66;;;14.63;100.00
31092;BME280;67728;53.122;12.776;2023-07-02T03:55:19;99539.34;;;14.64;100.00
31092;BME280;67728;53.122;12.776;2023-07-02T03:56:50;99536.63;;;14.65;100.00
31092;BME280;67728;53.122;12.776;2023-07-02T03:58:21;99538.34;;;14.66;100.00
31092;BME280;67728;53.122;12.776;2023-07-02T03:59:53;99533.13;;;14.66;100.00
31092;BME280;67728;53.122;12.776;2023-07-02T04:01:25;99537.47;;;14.66;100.00
31092;BME280;67728;53.122;12.776;2023-07-02T04:02:56;99532.03;;;14.70;100.00
31092;BME280;67728;53.122;12.776;2023-07-02T04:04:27;99526.81;;;14.70;100.00
31092;BME280;67728;53.122;12.776;2023-07-02T04:05:58;99531.25;;;14.68;100.00
31092;BME280;67728;53.122;12.776;2023-07-02T04:07:30;99523.53;;;14.67;100.00
31092;BME280;67728;53.122;12.776;2023-07-02T04:09:02;99540.09;;;14.66;100.00
31092;BME280;67728;53.122;12.776;2023-07-02T04:10:35;99534.22;;;14.62;100.00
31092;BME280;67728;53.122;12.776;2023-07-02T04:12:07;99540.34;;;14.61;100.00
31092;BME280;67728;53.122;12.776;2023-07-02T04:13:39;99544.78;;;14.59;100.00
31092;BME280;67728;53.122;12.776;2023-07-02T04:15:11;99544.69;;;14.61;100.00
31092;BME280;67728;53.122;12.776;2023-07-02T04:16:43;99535.22;;;14.60;100.00
31092;BME280;67728;53.122;12.776;2023-07-02T04:18:15;99534.50;;;14.56;100.00
31092;BME280;67728;53.122;12.776;2023-07-02T04:19:46;99534.50;;;14.56;100.00
31092;BME280;67728;53.122;12.776;2023-07-02T04:21:17;99531.13;;;14.54;100.00
31092;BME280;67728;53.122;12.776;2023-07-02T04:22:49;99540.72;;;14.54;100.00
31092;BME280;67728;53.122;12.776;2023-07-02T04:24:21;99538.97;;;14.54;100.00
31092;BME280;67728;53.122;12.776;2023-07-02T04:25:52;99534.72;;;14.52;100.00
31092;BME280;67728;53.122;12.776;2023-07-02T04:27:23;99539.13;;;14.51;100.00
31092;BME280;67728;53.122;12.776;2023-07-02T04:28:54;99537.28;;;14.53;100.00
31092;BME280;67728;53.122;12.776;2023-07-02T04:30:25;99543.25;;;14.55;100.00
31092;BME280;67728;53.122;12.776;2023-07-02T04:31:57;99541.41;;;14.57;100.00
31092;BME280;67728;53.122;12.776;2023-07-02T04:33:28;99542.19;;;14.59;100.00
31092;BME280;67728;53.122;12.776;2023-07-02T04:35:06;99536.03;;;14.60;100.00
31092;BME280;67728;53.122;12.776;2023-07-02T04:36:38;99544.69;;;14.61;100.00
31092;BME280;67728;53.122;12.776;2023-07-02T04:38:09;99541.09;;;14.63;100.00
31092;BME280;67728;53.122;12.776;2023-07-02T04:39:41;99535.88;;;14.63;100.00
31092;BME280;67728;53.122;12.776;2023-07-02T04:41:13;99536.41;;;14.70;100.00
31092;BME280;67728;53.122;12.776;2023-07-02T04:42:44;99538.94;;;14.71;100.00
31092;BME280;67728;53.122;12.776;2023-07-02T04:44:17;99542.16;;;14.76;100.00
31092;BME280;67728;53.122;12.776;2023-07-02T04:45:48;99540.34;;;14.78;99.60
31092;BME280;67728;53.122;12.776;2023-07-02T04:47:20;99537.47;;;14.83;99.48
31092;BME280;67728;53.122;12.776;2023-07-02T04:48:51;99544.06;;;14.90;99.02
31092;BME280;67728;53.122;12.776;2023-07-02T04:50:23;99543.91;;;14.93;99.16
31092;BME280;67728;53.122;12.776;2023-07-02T04:51:54;99547.47;;;14.92;98.71
31092;BME280;67728;53.122;12.776;2023-07-02T04:53:25;99551.50;;;14.98;98.47
31092;BME280;67728;53.122;12.776;2023-07-02T04:54:58;99558.41;;;14.98;99.08
31092;BME280;67728;53.122;12.776;2023-07-02T04:56:30;99552.44;;;14.96;98.82
31092;BME280;67728;53.122;12.776;2023-07-02T04:58:02;99548.38;;;14.91;99.29
31092;BME280;67728;53.122;12.776;2023-07-02T04:59:32;99557.72;;;14.95;98.36
31092;BME280;67728;53.122;12.776;2023-07-02T05:01:04;99551.81;;;14.91;98.75
31092;BME280;67728;53.122;12.776;2023-07-02T05:02:36;99557.81;;;14.93;98.11
31092;BME280;67728;53.122;12.776;2023-07-02T05:04:09;99558.81;;;14.91;99.23
31092;BME280;67728;53.122;12.776;2023-07-02T05:05:40;99555.59;;;14.86;98.13
31092;BME280;67728;53.122;12.776;2023-07-02T05:07:11;99553.84;;;14.86;97.88
31092;BME280;67728;53.122;12.776;2023-07-02T05:08:42;99553.03;;;14.84;98.28
31092;BME280;67728;53.122;12.776;2023-07-02T05:10:15;99547.59;;;14.89;98.24
31092;BME280;67728;53.122;12.776;2023-07-02T05:11:47;99560.56;;;14.90;98.35
31092;BME280;67728;53.122;12.776;2023-07-02T05:13:19;99558.97;;;14.88;98.18
31092;BME280;67728;53.122;12.776;2023-07-02T05:14:49;99558.22;;;14.86;97.73
31092;BME280;67728;53.122;12.776;2023-07-02T05:16:21;99560.66;;;14.89;97.79
31092;BME280;67728;53.122;12.776;2023-07-02T05:17:53;99562.19;;;14.93;97.84
31092;BME280;67728;53.122;12.776;2023-07-02T05:19:24;99557.06;;;14.91;97.70
31092;BME280;67728;53.122;12.776;2023-07-02T05:20:56;99550.13;;;14.90;96.65
31092;BME280;67728;53.122;12.776;2023-07-02T05:22:27;99563.78;;;14.95;97.45
31092;BME280;67728;53.122;12.776;2023-07-02T05:23:58;99560.50;;;14.92;97.07
31092;BME280;67728;53.122;12.776;2023-07-02T05:25:31;99564.88;;;14.91;97.00
31092;BME280;67728;53.122;12.776;2023-07-02T05:27:04;99555.28;;;14.92;96.48
31092;BME280;67728;53.122;12.776;2023-07-02T05:28:36;99550.88;;;14.92;97.39
31092;BME280;67728;53.122;12.776;2023-07-02T05:30:08;99536.91;;;14.93;97.50
31092;BME280;67728;53.122;12.776;2023-07-02T05:31:39;99542.91;;;14.95;97.35
31092;BME280;67728;53.122;12.776;2023-07-02T05:33:10;99550.81;;;14.94;96.82
31092;BME280;67728;53.122;12.776;2023-07-02T05:34:42;99549.81;;;14.96;96.96
31092;BME280;67728;53.122;12.776;2023-07-02T05:36:13;99542.84;;;14.97;97.27
31092;BME280;67728;53.122;12.776;2023-07-02T05:37:45;99545.19;;;15.02;96.57
31092;BME280;67728;53.122;12.776;2023-07-02T05:39:17;99540.66;;;15.05;96.58
31092;BME280;67728;53.122;12.776;2023-07-02T05:40:49;99540.66;;;15.05;96.38
31092;BME280;67728;53.122;12.776;2023-07-02T05:42:20;99541.31;;;15.09;95.77
31092;BME280;67728;53.122;12.776;2023-07-02T05:43:52;99549.84;;;15.12;96.43
31092;BME280;67728;53.122;12.776;2023-07-02T05:45:24;99547.94;;;15.16;95.59
31092;BME280;67728;53.122;12.776;2023-07-02T05:46:57;99547.53;;;15.23;95.63
31092;BME280;67728;53.122;12.776;2023-07-02T05:48:29;99553.66;;;15.22;95.91
31092;BME280;67728;53.122;12.776;2023-07-02T05:50:01;99548.53;;;15.21;95.08
31092;BME280;67728;53.122;12.776;2023-07-02T05:51:31;99545.06;;;15.20;94.86
31092;BME280;67728;53.122;12.776;2023-07-02T05:53:03;99548.28;;;15.25;95.66
31092;BME280;67728;53.122;12.776;2023-07-02T05:54:34;99543.00;;;15.27;95.58
31092;BME280;67728;53.122;12.776;2023-07-02T05:56:07;99538.34;;;15.32;95.70
31092;BME280;67728;53.122;12.776;2023-07-02T05:57:39;99539.06;;;15.35;94.88
31092;BME280;67728;53.122;12.776;2023-07-02T05:59:10;99537.94;;;15.39;95.98
31092;BME280;67728;53.122;12.776;2023-07-02T06:00:45;99541.25;;;15.43;95.05
31092;BME280;67728;53.122;12.776;2023-07-02T06:02:19;99544.31;;;15.51;95.02
31092;BME280;67728;53.122;12.776;2023-07-02T06:03:51;99540.59;;;15.55;94.75
31092;BME280;67728;53.122;12.776;2023-07-02T06:05:21;99535.38;;;15.55;94.42
31092;BME280;67728;53.122;12.776;2023-07-02T06:06:53;99541.81;;;15.65;94.31
31092;BME280;67728;53.122;12.776;2023-07-02T06:08:23;99537.66;;;15.77;93.72
31092;BME280;67728;53.122;12.776;2023-07-02T06:09:55;99530.31;;;15.83;91.73
31092;BME280;67728;53.122;12.776;2023-07-02T06:11:28;99522.38;;;15.85;91.38
31092;BME280;67728;53.122;12.776;2023-07-02T06:13:00;99535.88;;;15.93;91.54
31092;BME280;67728;53.122;12.776;2023-07-02T06:14:31;99541.59;;;15.99;91.67
31092;BME280;67728;53.122;12.776;2023-07-02T06:16:03;99547.00;;;15.96;89.71
31092;BME280;67728;53.122;12.776;2023-07-02T06:17:34;99551.91;;;16.02;89.40
31092;BME280;67728;53.122;12.776;2023-07-02T06:19:05;99537.97;;;16.02;89.04
31092;BME280;67728;53.122;12.776;2023-07-02T06:20:37;99544.97;;;16.01;87.56
31092;BME280;67728;53.122;12.776;2023-07-02T06:22:09;99543.53;;;16.11;88.45
31092;BME280;67728;53.122;12.776;2023-07-02T06:23:41;99529.25;;;16.17;87.45
31092;BME280;67728;53.122;12.776;2023-07-02T06:25:13;99530.50;;;16.26;87.57
31092;BME280;67728;53.122;12.776;2023-07-02T06:26:46;99540.78;;;16.29;87.02
31092;BME280;67728;53.122;12.776;2023-07-02T06:28:18;99538.69;;;16.35;88.13
31092;BME280;67728;53.122;12.776;2023-07-02T06:29:49;99549.38;;;16.31;86.73
31092;BME280;67728;53.122;12.776;2023-07-02T06:31:21;99547.63;;;16.31;87.36
31092;BME280;67728;53.122;12.776;2023-07-02T06:32:53;99551.84;;;16.34;86.54
31092;BME280;67728;53.122;12.776;2023-07-02T06:34:25;99545.75;;;16.33;86.10
31092;BME280;67728;53.122;12.776;2023-07-02T06:35:56;99552.59;;;16.36;85.23
31092;BME280;67728;53.122;12.776;2023-07-02T06:37:28;99564.25;;;16.30;85.43
31092;BME280;67728;53.122;12.776;2023-07-02T06:39:00;99569.16;;;16.21;82.85
31092;BME280;67728;53.122;12.776;2023-07-02T06:40:31;99570.94;;;16.20;83.25
31092;BME280;67728;53.122;12.776;2023-07-02T06:42:05;99568.16;;;16.23;82.91
31092;BME280;67728;53.122;12.776;2023-07-02T06:43:36;99578.84;;;16.34;83.09
31092;BME280;67728;53.122;12.776;2023-07-02T06:45:08;99572.44;;;16.40;84.30
31092;BME280;67728;53.122;12.776;2023-07-02T06:46:40;99573.69;;;16.48;83.82
31092;BME280;67728;53.122;12.776;2023-07-02T06:48:12;99571.56;;;16.55;84.10
31092;BME280;67728;53.122;12.776;2023-07-02T06:49:44;99573.44;;;16.53;82.02
31092;BME280;67728;53.122;12.776;2023-07-02T06:51:16;99575.03;;;16.55;82.52
31092;BME280;67728;53.122;12.776;2023-07-02T06:52:48;99571.50;;;16.56;81.43
31092;BME280;67728;53.122;12.776;2023-07-02T06:54:20;99576.06;;;16.53;80.61
31092;BME280;67728;53.122;12.776;2023-07-02T06:55:51;99580.28;;;16.55;81.32
31092;BME280;67728;53.122;12.776;2023-07-02T06:57:24;99578.31;;;16.59;81.20
31092;BME280;67728;53.122;12.776;2023-07-02T06:58:56;99585.44;;;16.71;81.67
31092;BME280;67728;53.122;12.776;2023-07-02T07:00:31;99573.34;;;16.84;81.37
31092;BME280;67728;53.122;12.776;2023-07-02T07:02:01;99580.75;;;16.92;82.63
31092;BME280;67728;53.122;12.776;2023-07-02T07:03:33;99584.41;;;16.89;79.76
31092;BME280;67728;53.122;12.776;2023-07-02T07:05:06;99587.00;;;17.03;78.98
31092;BME280;67728;53.122;12.776;2023-07-02T07:06:38;99585.06;;;17.07;76.99
31092;BME280;67728;53.122;12.776;2023-07-02T07:08:10;99589.88;;;16.85;77.05
31092;BME280;67728;53.122;12.776;2023-07-02T07:09:42;99595.19;;;17.13;77.27
31092;BME280;67728;53.122;12.776;2023-07-02T07:11:13;99590.22;;;17.37;74.73
31092;BME280;67728;53.122;12.776;2023-07-02T07:12:46;99584.88;;;17.52;74.54
31092;BME280;67728;53.122;12.776;2023-07-02T07:14:17;99586.22;;;17.59;76.92
31092;BME280;67728;53.122;12.776;2023-07-02T07:15:48;99582.28;;;17.66;74.94
31092;BME280;67728;53.122;12.776;2023-07-02T07:17:20;99583.84;;;17.83;74.82
31092;BME280;67728;53.122;12.776;2023-07-02T07:18:52;99594.81;;;17.89;74.74
31092;BME280;67728;53.122;12.776;2023-07-02T07:20:24;99594.16;;;17.72;73.17
31092;BME280;67728;53.122;12.776;2023-07-02T07:21:54;99595.88;;;17.59;75.46
31092;BME280;67728;53.122;12.776;2023-07-02T07:23:26;99600.44;;;17.83;75.54
31092;BME280;67728;53.122;12.776;2023-07-02T07:24:57;99600.94;;;17.62;72.48
31092;BME280;67728;53.122;12.776;2023-07-02T07:26:29;99606.09;;;18.04;73.38
31092;BME280;67728;53.122;12.776;2023-07-02T07:28:01;99589.63;;;18.02;75.19
31092;BME280;67728;53.122;12.776;2023-07-02T07:29:33;99593.00;;;17.90;73.66
31092;BME280;67728;53.122;12.776;2023-07-02T07:31:04;99597.66;;;18.13;71.97
31092;BME280;67728;53.122;12.776;2023-07-02T07:32:36;99603.13;;;18.23;70.93
31092;BME280;67728;53.122;12.776;2023-07-02T07:34:07;99598.03;;;18.07;70.74
31092;BME280;67728;53.122;12.776;2023-07-02T07:35:38;99600.09;;;18.16;69.91
31092;BME280;67728;53.122;12.776;2023-07-02T07:37:10;99589.31;;;18.33;71.36
31092;BME280;67728;53.122;12.776;2023-07-02T07:38:43;99603.94;;;18.11;71.80
31092;BME280;67728;53.122;12.776;2023-07-02T07:40:14;99606.72;;;18.22;72.60
31092;BME280;67728;53.122;12.776;2023-07-02T07:41:46;99602.47;;;17.92;71.23
31092;BME280;67728;53.122;12.776;2023-07-02T07:43:20;99609.09;;;17.98;72.67
31092;BME280;67728;53.122;12.776;2023-07-02T07:44:52;99607.03;;;18.03;70.75
31092;BME280;67728;53.122;12.776;2023-07-02T07:46:23;99604.09;;;18.22;71.43
31092;BME280;67728;53.122;12.776;2023-07-02T07:47:55;99606.38;;;18.67;72.54
31092;BME280;67728;53.122;12.776;2023-07-02T07:49:26;99601.47;;;18.75;69.79
31092;BME280;67728;53.122;12.776;2023-07-02T07:50:58;99611.13;;;18.87;69.80
31092;BME280;67728;53.122;12.776;2023-07-02T07:52:29;99609.06;;;19.18;69.67
31092;BME280;67728;53.122;12.776;2023-07-02T07:54:01;99614.09;;;19.33;69.21
31092;BME280;67728;53.122;12.776;2023-07-02T07:55:33;99612.53;;;19.18;68.26
31092;BME280;67728;53.122;12.776;2023-07-02T07:57:05;99605.91;;;19.00;67.60
31092;BME280;67728;53.122;12.776;2023-07-02T07:58:38;99611.81;;;19.16;68.64